sensor_id;sensor_type;location;lat;lon;timestamp;pressure;altitude;pressure_sealevel;temperature;humidity
63190;BME280;49286;44.460;26.114;2022-11-21T00:01:32;99821.97;;;6.55;100.00
63190;BME280;49286;44.460;26.114;2022-11-21T00:03:57;99807.09;;;6.39;100.00
63190;BME280;49286;44.460;26.114;2022-11-21T00:06:23;99809.00;;;6.66;100.00
63190;BME280;49286;44.460;26.114;2022-11-21T00:08:48;99812.44;;;6.59;100.00
63190;BME280;49286;44.460;26.114;2022-11-21T00:11:14;99783.72;;;6.49;100.00
63190;BME280;49286;44.460;26.114;2022-11-21T00:13:40;99635.66;;;5.81;100.00
63190;BME280;49286;44.460;26.114;2022-11-21T00:16:08;99755.91;;;6.50;100.00
63190;BME280;49286;44.460;26.114;2022-11-21T00:18:34;59860.63;;;-146.26;100.00
63190;BME280;49286;44.460;26.114;2022-11-21T00:21:05;59860.63;;;-146.26;100.00
63190;BME280;49286;44.460;26.114;2022-11-21T00:23:30;99640.88;;;5.87;100.00
63190;BME280;49286;44.460;26.114;2022-11-21T00:25:56;59860.63;;;-146.26;100.00
63190;BME280;49286;44.460;26.114;2022-11-21T00:28:21;59860.63;;;-146.26;100.00
63190;BME280;49286;44.460;26.114;2022-11-21T00:30:47;59860.63;;;-146.26;100.00
63190;BME280;49286;44.460;26.114;2022-11-21T00:33:12;59860.63;;;-146.26;100.00
63190;BME280;49286;44.460;26.114;2022-11-21T00:35:38;59860.63;;;-146.26;100.00
63190;BME280;49286;44.460;26.114;2022-11-21T00:38:04;99776.22;;;7.23;100.00
63190;BME280;49286;44.460;26.114;2022-11-21T00:40:30;59860.63;;;-146.26;100.00
63190;BME280;49286;44.460;26.114;2022-11-21T00:42:56;99719.59;;;6.85;100.00
63190;BME280;49286;44.460;26.114;2022-11-21T00:45:21;59860.63;;;-146.26;100.00
63190;BME280;49286;44.460;26.114;2022-11-21T00:47:46;99700.28;;;6.43;100.00
63190;BME280;49286;44.460;26.114;2022-11-21T00:50:12;99580.88;;;5.68;100.00
63190;BME280;49286;44.460;26.114;2022-11-21T00:52:37;59860.63;;;-146.26;100.00
63190;BME280;49286;44.460;26.114;2022-11-21T00:55:03;59860.63;;;-146.26;100.00
63190;BME280;49286;44.460;26.114;2022-11-21T00:57:29;59860.63;;;-146.26;100.00
63190;BME280;49286;44.460;26.114;2022-11-21T00:59:54;99580.88;;;5.68;100.00
63190;BME280;49286;44.460;26.114;2022-11-21T01:02:20;59860.63;;;-146.26;100.00
63190;BME280;49286;44.460;26.114;2022-11-21T01:04:45;59860.63;;;-146.26;100.00
63190;BME280;49286;44.460;26.114;2022-11-21T01:07:12;59860.63;;;-146.26;100.00
63190;BME280;49286;44.460;26.114;2022-11-21T01:09:38;99619.22;;;5.91;100.00
63190;BME280;49286;44.460;26.114;2022-11-21T01:12:04;99503.59;;;5.49;100.00
63190;BME280;49286;44.460;26.114;2022-11-21T01:14:29;59860.63;;;-146.26;100.00
63190;BME280;49286;44.460;26.114;2022-11-21T01:16:55;59860.63;;;-146.26;100.00
63190;BME280;49286;44.460;26.114;2022-11-21T01:19:20;59860.63;;;-146.26;100.00
63190;BME280;49286;44.460;26.114;2022-11-21T01:21:46;59860.63;;;-146.26;100.00
63190;BME280;49286;44.460;26.114;2022-11-21T01:24:11;99673.19;;;6.15;100.00
63190;BME280;49286;44.460;26.114;2022-11-21T01:26:38;99639.75;;;5.51;100.00
63190;BME280;49286;44.460;26.114;2022-11-21T01:29:05;59860.63;;;-146.26;100.00
63190;BME280;49286;44.460;26.114;2022-11-21T01:31:31;59860.63;;;-146.26;100.00
63190;BME280;49286;44.460;26.114;2022-11-21T01:33:58;59860.63;;;-146.26;100.00
63190;BME280;49286;44.460;26.114;2022-11-21T01:36:27;59860.63;;;-146.26;100.00
63190;BME280;49286;44.460;26.114;2022-11-21T01:38:54;59860.63;;;-146.26;100.00
63190;BME280;49286;44.460;26.114;2022-11-21T01:41:28;99581.19;;;4.95;100.00
63190;BME280;49286;44.460;26.114;2022-11-21T01:44:22;99545.47;;;4.74;100.00
63190;BME280;49286;44.460;26.114;2022-11-21T01:46:47;99537.16;;;5.14;100.00
63190;BME280;49286;44.460;26.114;2022-11-21T01:49:21;99466.94;;;5.12;100.00
63190;BME280;49286;44.460;26.114;2022-11-21T02:02:20;99574.38;;;6.58;100.00
63190;BME280;49286;44.460;26.114;2022-11-21T02:04:47;99463.09;;;6.09;100.00
63190;BME280;49286;44.460;26.114;2022-11-21T02:07:16;99475.31;;;6.41;100.00
63190;BME280;49286;44.460;26.114;2022-11-21T02:09:43;99450.94;;;6.05;100.00
63190;BME280;49286;44.460;26.114;2022-11-21T02:12:15;99425.56;;;5.61;100.00
63190;BME280;49286;44.460;26.114;2022-11-21T02:14:43;99498.66;;;5.98;100.00
63190;BME280;49286;44.460;26.114;2022-11-21T02:17:09;99524.78;;;6.23;100.00
63190;BME280;49286;44.460;26.114;2022-11-21T02:22:39;99558.69;;;6.40;100.00
63190;BME280;49286;44.460;26.114;2022-11-21T02:25:09;99423.03;;;5.69;100.00
63190;BME280;49286;44.460;26.114;2022-11-21T02:27:36;99530.94;;;6.46;100.00
63190;BME280;49286;44.460;26.114;2022-11-21T02:30:04;99569.22;;;7.09;100.00
63190;BME280;49286;44.460;26.114;2022-11-21T02:32:35;99505.75;;;6.65;100.00
63190;BME280;49286;44.460;26.114;2022-11-21T02:35:02;99537.06;;;6.97;100.00
63190;BME280;49286;44.460;26.114;2022-11-21T02:37:28;99518.81;;;6.96;100.00
63190;BME280;49286;44.460;26.114;2022-11-21T02:39:54;99498.81;;;6.83;100.00
63190;BME280;49286;44.460;26.114;2022-11-21T02:42:45;99495.31;;;7.07;100.00
63190;BME280;49286;44.460;26.114;2022-11-21T02:45:24;99477.97;;;6.93;100.00
63190;BME280;49286;44.460;26.114;2022-11-21T02:47:53;99450.13;;;6.92;100.00
63190;BME280;49286;44.460;26.114;2022-11-21T02:50:23;99404.09;;;6.62;100.00
63190;BME280;49286;44.460;26.114;2022-11-21T02:52:49;99495.31;;;7.02;100.00
63190;BME280;49286;44.460;26.114;2022-11-21T02:55:15;99356.31;;;6.20;100.00
63190;BME280;49286;44.460;26.114;2022-11-21T02:57:41;99488.38;;;7.00;100.00
63190;BME280;49286;44.460;26.114;2022-11-21T03:00:08;99464.06;;;6.87;100.00
63190;BME280;49286;44.460;26.114;2022-11-21T03:02:34;99411.91;;;6.82;100.00
63190;BME280;49286;44.460;26.114;2022-11-21T03:05:01;99461.41;;;7.24;100.00
63190;BME280;49286;44.460;26.114;2022-11-21T03:07:26;99332.88;;;6.48;100.00
63190;BME280;49286;44.460;26.114;2022-11-21T03:09:52;99409.28;;;6.94;100.00
63190;BME280;49286;44.460;26.114;2022-11-21T03:12:17;99273.84;;;6.11;100.00
63190;BME280;49286;44.460;26.114;2022-11-21T03:14:43;99439.72;;;7.05;100.00
63190;BME280;49286;44.460;26.114;2022-11-21T03:17:08;99402.34;;;6.84;100.00
63190;BME280;49286;44.460;26.114;2022-11-21T03:19:34;99403.22;;;6.86;100.00
63190;BME280;49286;44.460;26.114;2022-11-21T03:21:59;99264.28;;;6.06;100.00
63190;BME280;49286;44.460;26.114;2022-11-21T03:24:25;99259.97;;;6.02;100.00
63190;BME280;49286;44.460;26.114;2022-11-21T03:26:50;99353.72;;;6.20;100.00
63190;BME280;49286;44.460;26.114;2022-11-21T03:29:15;99140.09;;;4.73;100.00
63190;BME280;49286;44.460;26.114;2022-11-21T03:31:41;99369.19;;;5.59;100.00
63190;BME280;49286;44.460;26.114;2022-11-21T03:34:06;99258.78;;;4.80;100.00
63190;BME280;49286;44.460;26.114;2022-11-21T03:36:33;99241.38;;;4.60;100.00
63190;BME280;49286;44.460;26.114;2022-11-21T03:38:58;99264.03;;;4.91;100.00
63190;BME280;49286;44.460;26.114;2022-11-21T03:41:24;99243.25;;;4.89;100.00
63190;BME280;49286;44.460;26.114;2022-11-21T03:43:54;99149.41;;;4.15;100.00
63190;BME280;49286;44.460;26.114;2022-11-21T03:46:20;99205.84;;;4.56;100.00
63190;BME280;49286;44.460;26.114;2022-11-21T03:48:45;99272.75;;;4.94;100.00
63190;BME280;49286;44.460;26.114;2022-11-21T03:51:11;99255.31;;;4.75;100.00
63190;BME280;49286;44.460;26.114;2022-11-21T03:53:36;99320.41;;;5.01;100.00
63190;BME280;49286;44.460;26.114;2022-11-21T03:56:02;99278.69;;;4.75;100.00
63190;BME280;49286;44.460;26.114;2022-11-21T03:58:27;99200.63;;;4.46;100.00
63190;BME280;49286;44.460;26.114;2022-11-21T04:00:53;99271.97;;;5.15;100.00
63190;BME280;49286;44.460;26.114;2022-11-21T04:03:18;99184.16;;;4.43;100.00
63190;BME280;49286;44.460;26.114;2022-11-21T04:05:43;99146.09;;;4.52;100.00
63190;BME280;49286;44.460;26.114;2022-11-21T04:08:09;99187.69;;;4.58;100.00
63190;BME280;49286;44.460;26.114;2022-11-21T04:10:34;99164.25;;;4.47;100.00
63190;BME280;49286;44.460;26.114;2022-11-21T04:13:00;99153.88;;;4.47;100.00
63190;BME280;49286;44.460;26.114;2022-11-21T04:15:25;99219.88;;;4.91;100.00
63190;BME280;49286;44.460;26.114;2022-11-21T04:17:51;99325.63;;;5.07;100.00
63190;BME280;49286;44.460;26.114;2022-11-21T04:20:17;99579.03;;;5.52;100.00
63190;BME280;49286;44.460;26.114;2022-11-21T04:22:42;99485.47;;;4.48;100.00
63190;BME280;49286;44.460;26.114;2022-11-21T04:25:08;99581.47;;;5.24;100.00
63190;BME280;49286;44.460;26.114;2022-11-21T04:27:33;99595.44;;;5.39;100.00
63190;BME280;49286;44.460;26.114;2022-11-21T04:29:59;99588.56;;;5.48;100.00
63190;BME280;49286;44.460;26.114;2022-11-21T04:32:24;99461.81;;;4.19;100.00
63190;BME280;49286;44.460;26.114;2022-11-21T04:34:50;99472.63;;;4.62;100.00
63190;BME280;49286;44.460;26.114;2022-11-21T04:37:15;99388.19;;;4.11;100.00
63190;BME280;49286;44.460;26.114;2022-11-21T04:39:41;99534.63;;;5.23;100.00
63190;BME280;49286;44.460;26.114;2022-11-21T04:42:06;99448.56;;;4.89;100.00
63190;BME280;49286;44.460;26.114;2022-11-21T04:44:31;99349.28;;;4.14;100.00
63190;BME280;49286;44.460;26.114;2022-11-21T04:46:57;99491.69;;;4.64;100.00
63190;BME280;49286;44.460;26.114;2022-11-21T04:49:24;99491.59;;;4.53;100.00
63190;BME280;49286;44.460;26.114;2022-11-21T04:51:49;99332.38;;;3.64;100.00
63190;BME280;49286;44.460;26.114;2022-11-21T04:54:15;99466.47;;;4.52;100.00
63190;BME280;49286;44.460;26.114;2022-11-21T04:56:40;99425.69;;;4.42;100.00
63190;BME280;49286;44.460;26.114;2022-11-21T04:59:06;99427.44;;;4.44;100.00
63190;BME280;49286;44.460;26.114;2022-11-21T05:01:31;99365.91;;;4.37;100.00
63190;BME280;49286;44.460;26.114;2022-11-21T05:03:57;99422.53;;;4.84;100.00
63190;BME280;49286;44.460;26.114;2022-11-21T05:06:22;99412.03;;;4.64;100.00
63190;BME280;49286;44.460;26.114;2022-11-21T05:08:48;99383.47;;;4.66;100.00
63190;BME280;49286;44.460;26.114;2022-11-21T05:11:13;99335.69;;;4.49;100.00
63190;BME280;49286;44.460;26.114;2022-11-21T05:13:57;99310.78;;;4.75;100.00
63190;BME280;49286;44.460;26.114;2022-11-21T05:16:22;99270.75;;;4.46;100.00
63190;BME280;49286;44.460;26.114;2022-11-21T05:18:49;99217.91;;;4.39;100.00
63190;BME280;49286;44.460;26.114;2022-11-21T05:21:14;99320.38;;;4.90;100.00
63190;BME280;49286;44.460;26.114;2022-11-21T05:23:41;99308.22;;;4.91;100.00
63190;BME280;49286;44.460;26.114;2022-11-21T05:26:07;99270.00;;;4.67;100.00
63190;BME280;49286;44.460;26.114;2022-11-21T05:28:32;99209.22;;;4.35;100.00
63190;BME280;49286;44.460;26.114;2022-11-21T05:30:57;99333.50;;;5.21;100.00
63190;BME280;49286;44.460;26.114;2022-11-21T05:33:23;99336.16;;;5.33;100.00
63190;BME280;49286;44.460;26.114;2022-11-21T05:35:48;99331.81;;;5.27;100.00
63190;BME280;49286;44.460;26.114;2022-11-21T05:38:14;99138.22;;;4.24;100.00
63190;BME280;49286;44.460;26.114;2022-11-21T05:40:39;99349.19;;;5.44;100.00
63190;BME280;49286;44.460;26.114;2022-11-21T05:43:05;99347.44;;;5.37;100.00
63190;BME280;49286;44.460;26.114;2022-11-21T05:45:50;99203.31;;;4.70;100.00
63190;BME280;49286;44.460;26.114;2022-11-21T05:48:16;99357.09;;;5.71;100.00
63190;BME280;49286;44.460;26.114;2022-11-21T05:50:46;99232.00;;;5.01;100.00
63190;BME280;49286;44.460;26.114;2022-11-21T05:53:12;99246.81;;;5.11;100.00
63190;BME280;49286;44.460;26.114;2022-11-21T05:55:38;99359.72;;;5.84;100.00
63190;BME280;49286;44.460;26.114;2022-11-21T05:58:03;99211.19;;;4.87;100.00
63190;BME280;49286;44.460;26.114;2022-11-21T06:00:29;99226.72;;;4.69;100.00
63190;BME280;49286;44.460;26.114;2022-11-21T06:02:55;99290.22;;;5.37;100.00
63190;BME280;49286;44.460;26.114;2022-11-21T06:05:40;99265.88;;;5.13;100.00
63190;BME280;49286;44.460;26.114;2022-11-21T06:08:05;99202.41;;;4.57;100.00
63190;BME280;49286;44.460;26.114;2022-11-21T06:10:31;99353.34;;;5.00;100.00
63190;BME280;49286;44.460;26.114;2022-11-21T06:13:00;99342.06;;;5.00;100.00
63190;BME280;49286;44.460;26.114;2022-11-21T06:15:26;99222.19;;;4.29;100.00
63190;BME280;49286;44.460;26.114;2022-11-21T06:17:52;99356.03;;;5.19;100.00
63190;BME280;49286;44.460;26.114;2022-11-21T06:20:17;99328.31;;;5.24;100.00
63190;BME280;49286;44.460;26.114;2022-11-21T06:22:43;99255.41;;;4.96;100.00
63190;BME280;49286;44.460;26.114;2022-11-21T06:25:10;99344.81;;;5.27;100.00
63190;BME280;49286;44.460;26.114;2022-11-21T06:27:36;99299.63;;;4.99;100.00
63190;BME280;49286;44.460;26.114;2022-11-21T06:30:02;99173.66;;;4.23;100.00
63190;BME280;49286;44.460;26.114;2022-11-21T06:32:28;99265.81;;;4.92;100.00
63190;BME280;49286;44.460;26.114;2022-11-21T06:34:53;99304.88;;;5.13;100.00
63190;BME280;49286;44.460;26.114;2022-11-21T06:37:19;99230.09;;;4.54;100.00
63190;BME280;49286;44.460;26.114;2022-11-21T06:39:46;99354.19;;;4.92;100.00
63190;BME280;49286;44.460;26.114;2022-11-21T06:42:13;99314.19;;;4.67;100.00
63190;BME280;49286;44.460;26.114;2022-11-21T06:44:38;99209.69;;;3.73;100.00
63190;BME280;49286;44.460;26.114;2022-11-21T06:47:04;99234.06;;;3.93;100.00
63190;BME280;49286;44.460;26.114;2022-11-21T06:49:29;99210.75;;;4.01;100.00
63190;BME280;49286;44.460;26.114;2022-11-21T06:51:55;99366.22;;;4.82;100.00
63190;BME280;49286;44.460;26.114;2022-11-21T06:54:20;99240.16;;;4.05;100.00
63190;BME280;49286;44.460;26.114;2022-11-21T06:56:45;99248.03;;;4.14;100.00
63190;BME280;49286;44.460;26.114;2022-11-21T06:59:11;99380.94;;;4.78;100.00
63190;BME280;49286;44.460;26.114;2022-11-21T07:01:36;99367.72;;;4.46;100.00
63190;BME280;49286;44.460;26.114;2022-11-21T07:04:02;99275.78;;;4.22;100.00
63190;BME280;49286;44.460;26.114;2022-11-21T07:06:27;99382.75;;;4.90;100.00
63190;BME280;49286;44.460;26.114;2022-11-21T07:08:53;99347.91;;;4.62;100.00
63190;BME280;49286;44.460;26.114;2022-11-21T07:11:18;99232.28;;;3.91;100.00
63190;BME280;49286;44.460;26.114;2022-11-21T07:13:44;99299.13;;;4.18;100.00
63190;BME280;49286;44.460;26.114;2022-11-21T07:16:11;99272.41;;;4.31;100.00
63190;BME280;49286;44.460;26.114;2022-11-21T07:18:40;99262.75;;;4.13;100.00
63190;BME280;49286;44.460;26.114;2022-11-21T07:21:07;99245.44;;;4.12;100.00
63190;BME280;49286;44.460;26.114;2022-11-21T07:23:33;99350.75;;;5.05;100.00
63190;BME280;49286;44.460;26.114;2022-11-21T07:26:00;99276.16;;;4.82;100.00
63190;BME280;49286;44.460;26.114;2022-11-21T07:28:28;99348.88;;;4.73;100.00
63190;BME280;49286;44.460;26.114;2022-11-21T07:30:58;99354.16;;;4.90;100.00
63190;BME280;49286;44.460;26.114;2022-11-21T07:33:24;99368.78;;;4.74;100.00
63190;BME280;49286;44.460;26.114;2022-11-21T07:35:49;99228.91;;;4.02;100.00
63190;BME280;49286;44.460;26.114;2022-11-21T07:38:15;99389.72;;;5.00;100.00
63190;BME280;49286;44.460;26.114;2022-11-21T07:40:41;99372.41;;;5.01;100.00
63190;BME280;49286;44.460;26.114;2022-11-21T07:43:06;99243.63;;;4.04;100.00
63190;BME280;49286;44.460;26.114;2022-11-21T07:45:32;99263.81;;;4.44;100.00
63190;BME280;49286;44.460;26.114;2022-11-21T07:47:59;99272.66;;;4.79;100.00
63190;BME280;49286;44.460;26.114;2022-11-21T07:50:26;99204.31;;;6.52;100.00
63190;BME280;49286;44.460;26.114;2022-11-21T07:52:59;99346.47;;;7.51;100.00
63190;BME280;49286;44.460;26.114;2022-11-21T07:55:25;99358.91;;;6.69;100.00
63190;BME280;49286;44.460;26.114;2022-11-21T07:58:05;99399.69;;;5.95;100.00
63190;BME280;49286;44.460;26.114;2022-11-21T08:00:33;99395.22;;;7.42;100.00
63190;BME280;49286;44.460;26.114;2022-11-21T08:02:59;99398.88;;;6.11;100.00
63190;BME280;49286;44.460;26.114;2022-11-21T08:05:25;99400.63;;;6.43;100.00
63190;BME280;49286;44.460;26.114;2022-11-21T08:07:51;99267.72;;;5.68;100.00
63190;BME280;49286;44.460;26.114;2022-11-21T08:10:17;99389.03;;;5.31;100.00
63190;BME280;49286;44.460;26.114;2022-11-21T08:12:44;99281.97;;;4.38;100.00
63190;BME280;49286;44.460;26.114;2022-11-21T08:15:10;99308.34;;;5.14;100.00
63190;BME280;49286;44.460;26.114;2022-11-21T08:17:36;99285.75;;;4.99;100.00
63190;BME280;49286;44.460;26.114;2022-11-21T08:20:06;99396.19;;;5.93;100.00
63190;BME280;49286;44.460;26.114;2022-11-21T08:22:37;99429.91;;;5.59;100.00
63190;BME280;49286;44.460;26.114;2022-11-21T08:25:03;99322.28;;;5.34;100.00
63190;BME280;49286;44.460;26.114;2022-11-21T08:27:28;99404.06;;;6.05;100.00
63190;BME280;49286;44.460;26.114;2022-11-21T08:29:53;99267.59;;;5.14;100.00
63190;BME280;49286;44.460;26.114;2022-11-21T08:32:19;99375.28;;;5.68;100.00
63190;BME280;49286;44.460;26.114;2022-11-21T08:34:44;99376.97;;;5.49;100.00
63190;BME280;49286;44.460;26.114;2022-11-21T08:37:10;99442.81;;;5.38;100.00
63190;BME280;49286;44.460;26.114;2022-11-21T08:39:35;99357.66;;;4.95;100.00
63190;BME280;49286;44.460;26.114;2022-11-21T08:42:01;99452.50;;;5.76;100.00
63190;BME280;49286;44.460;26.114;2022-11-21T08:44:33;99352.50;;;5.01;100.00
63190;BME280;49286;44.460;26.114;2022-11-21T08:46:59;99320.50;;;5.18;100.00
63190;BME280;49286;44.460;26.114;2022-11-21T08:49:25;99444.81;;;5.99;100.00
63190;BME280;49286;44.460;26.114;2022-11-21T08:51:51;99260.53;;;4.81;100.00
63190;BME280;49286;44.460;26.114;2022-11-21T08:54:21;99445.59;;;5.82;100.00
63190;BME280;49286;44.460;26.114;2022-11-21T08:56:48;99440.53;;;6.07;100.00
63190;BME280;49286;44.460;26.114;2022-11-21T08:59:14;99472.69;;;6.30;100.00
63190;BME280;49286;44.460;26.114;2022-11-21T09:01:40;99484.78;;;6.07;100.00
63190;BME280;49286;44.460;26.114;2022-11-21T09:04:05;99368.16;;;5.15;100.00
63190;BME280;49286;44.460;26.114;2022-11-21T09:06:31;99371.66;;;5.26;100.00
63190;BME280;49286;44.460;26.114;2022-11-21T09:08:57;99462.09;;;5.81;100.00
63190;BME280;49286;44.460;26.114;2022-11-21T09:11:23;99415.00;;;5.29;100.00
63190;BME280;49286;44.460;26.114;2022-11-21T09:13:52;99275.88;;;4.35;100.00
63190;BME280;49286;44.460;26.114;2022-11-21T09:16:36;99490.72;;;5.77;100.00
63190;BME280;49286;44.460;26.114;2022-11-21T09:19:21;99355.19;;;5.29;100.00
63190;BME280;49286;44.460;26.114;2022-11-21T09:21:50;99494.34;;;6.02;100.00
63190;BME280;49286;44.460;26.114;2022-11-21T09:24:17;99435.09;;;5.56;100.00
63190;BME280;49286;44.460;26.114;2022-11-21T09:27:02;99442.09;;;5.76;100.00
63190;BME280;49286;44.460;26.114;2022-11-21T09:29:28;99447.19;;;5.45;100.00
63190;BME280;49286;44.460;26.114;2022-11-21T09:31:53;99383.53;;;4.78;100.00
63190;BME280;49286;44.460;26.114;2022-11-21T09:34:19;99483.84;;;5.91;100.00
63190;BME280;49286;44.460;26.114;2022-11-21T09:36:44;99503.94;;;6.27;100.00
63190;BME280;49286;44.460;26.114;2022-11-21T09:39:10;99382.22;;;5.71;100.00
63190;BME280;49286;44.460;26.114;2022-11-21T09:47:15;99393.63;;;6.01;100.00
63190;BME280;49286;44.460;26.114;2022-11-21T09:49:47;99489.94;;;5.99;100.00
63190;BME280;49286;44.460;26.114;2022-11-21T09:52:16;99497.84;;;6.22;100.00
63190;BME280;49286;44.460;26.114;2022-11-21T09:54:49;99429.22;;;6.08;100.00
63190;BME280;49286;44.460;26.114;2022-11-21T09:57:20;99506.63;;;6.67;100.00
63190;BME280;49286;44.460;26.114;2022-11-21T09:59:47;99484.00;;;6.52;100.00
63190;BME280;49286;44.460;26.114;2022-11-21T10:02:18;99369.34;;;6.02;100.00
63190;BME280;49286;44.460;26.114;2022-11-21T10:04:46;99391.03;;;6.10;100.00
63190;BME280;49286;44.460;26.114;2022-11-21T10:07:18;99376.25;;;5.98;100.00
63190;BME280;49286;44.460;26.114;2022-11-21T10:26:52;99515.22;;;6.26;100.00
63190;BME280;49286;44.460;26.114;2022-11-21T10:29:59;99493.59;;;6.81;100.00
63190;BME280;49286;44.460;26.114;2022-11-21T10:32:36;99365.84;;;6.06;100.00
63190;BME280;49286;44.460;26.114;2022-11-21T10:35:13;99351.09;;;6.05;100.00
63190;BME280;49286;44.460;26.114;2022-11-21T10:37:44;99492.75;;;6.79;100.00
63190;BME280;49286;44.460;26.114;2022-11-21T10:40:45;99532.69;;;6.86;100.00
63190;BME280;49286;44.460;26.114;2022-11-21T10:43:33;99527.50;;;6.87;100.00
63190;BME280;49286;44.460;26.114;2022-11-21T10:46:20;99526.63;;;6.78;100.00
63190;BME280;49286;44.460;26.114;2022-11-21T10:49:04;99429.25;;;6.26;100.00
63190;BME280;49286;44.460;26.114;2022-11-21T10:51:44;99538.81;;;6.91;100.00
63190;BME280;49286;44.460;26.114;2022-11-21T10:54:13;99450.13;;;6.52;100.00
63190;BME280;49286;44.460;26.114;2022-11-21T10:57:12;99418.00;;;6.47;100.00
63190;BME280;49286;44.460;26.114;2022-11-21T10:59:39;99404.97;;;6.35;100.00
63190;BME280;49286;44.460;26.114;2022-11-21T11:04:39;99516.19;;;6.93;100.00
63190;BME280;49286;44.460;26.114;2022-11-21T11:07:23;99530.13;;;7.03;100.00
63190;BME280;49286;44.460;26.114;2022-11-21T11:09:50;99514.44;;;7.04;100.00
63190;BME280;49286;44.460;26.114;2022-11-21T11:12:30;99503.16;;;6.82;100.00
63190;BME280;49286;44.460;26.114;2022-11-21T11:15:23;99481.44;;;6.72;100.00
63190;BME280;49286;44.460;26.114;2022-11-21T11:17:58;99393.69;;;6.30;100.00
63190;BME280;49286;44.460;26.114;2022-11-21T11:20:40;99524.03;;;7.22;100.00
63190;BME280;49286;44.460;26.114;2022-11-21T11:25:53;99507.50;;;7.22;100.00
63190;BME280;49286;44.460;26.114;2022-11-21T11:28:20;99509.25;;;7.19;100.00
63190;BME280;49286;44.460;26.114;2022-11-21T11:30:49;99500.53;;;7.24;100.00
63190;BME280;49286;44.460;26.114;2022-11-21T11:33:41;99413.63;;;6.79;100.00
63190;BME280;49286;44.460;26.114;2022-11-21T11:38:56;99497.03;;;7.38;100.00
63190;BME280;49286;44.460;26.114;2022-11-21T11:41:59;99384.09;;;6.78;100.00
63190;BME280;49286;44.460;26.114;2022-11-21T11:44:57;99523.97;;;7.57;100.00
63190;BME280;49286;44.460;26.114;2022-11-21T11:48:08;99502.25;;;7.49;100.00
63190;BME280;49286;44.460;26.114;2022-11-21T11:50:56;99481.34;;;7.48;100.00
63190;BME280;49286;44.460;26.114;2022-11-21T11:53:38;99530.06;;;7.59;100.00
63190;BME280;49286;44.460;26.114;2022-11-21T11:56:12;99537.03;;;7.30;100.00
63190;BME280;49286;44.460;26.114;2022-11-21T12:06:38;99516.97;;;7.69;100.00
63190;BME280;49286;44.460;26.114;2022-11-21T12:09:24;99516.13;;;7.53;100.00
63190;BME280;49286;44.460;26.114;2022-11-21T12:11:55;99396.25;;;6.96;100.00
63190;BME280;49286;44.460;26.114;2022-11-21T12:18:04;99516.16;;;7.48;100.00
63190;BME280;49286;44.460;26.114;2022-11-21T12:23:15;99517.84;;;7.58;100.00
63190;BME280;49286;44.460;26.114;2022-11-21T12:36:45;99503.13;;;7.39;100.00
63190;BME280;49286;44.460;26.114;2022-11-21T12:41:53;99537.00;;;7.57;100.00
63190;BME280;49286;44.460;26.114;2022-11-21T12:47:33;99530.94;;;7.52;100.00
63190;BME280;49286;44.460;26.114;2022-11-21T12:51:01;99535.28;;;7.46;100.00
63190;BME280;49286;44.460;26.114;2022-11-21T12:53:57;99534.41;;;7.53;100.00
63190;BME280;49286;44.460;26.114;2022-11-21T12:56:53;99527.44;;;7.49;100.00
63190;BME280;49286;44.460;26.114;2022-11-21T12:59:23;99543.94;;;7.63;100.00
63190;BME280;49286;44.460;26.114;2022-11-21T13:04:33;99410.16;;;6.98;100.00
63190;BME280;49286;44.460;26.114;2022-11-21T13:07:01;99419.66;;;7.11;100.00
63190;BME280;49286;44.460;26.114;2022-11-21T13:09:29;99528.22;;;7.86;100.00
63190;BME280;49286;44.460;26.114;2022-11-21T13:12:07;99543.88;;;7.97;100.00
63190;BME280;49286;44.460;26.114;2022-11-21T13:20:19;99556.84;;;8.20;100.00
63190;BME280;49286;44.460;26.114;2022-11-21T13:25:12;99562.91;;;8.28;100.00
63190;BME280;49286;44.460;26.114;2022-11-21T13:27:43;99457.75;;;7.78;100.00
63190;BME280;49286;44.460;26.114;2022-11-21T13:35:30;99537.63;;;8.41;100.00
63190;BME280;49286;44.460;26.114;2022-11-21T13:45:48;99435.13;;;7.80;100.00
63190;BME280;49286;44.460;26.114;2022-11-21T13:53:37;99481.03;;;8.24;100.00
63190;BME280;49286;44.460;26.114;2022-11-21T13:59:04;99560.09;;;8.71;100.00
63190;BME280;49286;44.460;26.114;2022-11-21T14:06:33;99446.34;;;7.93;100.00
63190;BME280;49286;44.460;26.114;2022-11-21T14:12:01;99549.75;;;8.53;100.00
63190;BME280;49286;44.460;26.114;2022-11-21T14:19:58;99595.09;;;8.38;100.00
63190;BME280;49286;44.460;26.114;2022-11-21T14:22:38;99541.22;;;8.06;100.00
63190;BME280;49286;44.460;26.114;2022-11-21T14:25:14;99477.88;;;7.52;100.00
63190;BME280;49286;44.460;26.114;2022-11-21T14:27:45;99537.72;;;8.12;100.00
63190;BME280;49286;44.460;26.114;2022-11-21T14:30:29;99496.94;;;7.72;100.00
63190;BME280;49286;44.460;26.114;2022-11-21T14:32:55;99586.47;;;8.22;100.00
63190;BME280;49286;44.460;26.114;2022-11-21T14:35:22;99467.41;;;7.49;100.00
63190;BME280;49286;44.460;26.114;2022-11-21T14:37:49;99598.59;;;8.35;100.00
63190;BME280;49286;44.460;26.114;2022-11-21T14:40:22;99551.59;;;8.21;100.00
63190;BME280;49286;44.460;26.114;2022-11-21T14:42:48;99468.25;;;7.58;100.00
63190;BME280;49286;44.460;26.114;2022-11-21T14:45:19;99470.88;;;7.57;100.00
63190;BME280;49286;44.460;26.114;2022-11-21T14:47:49;99484.00;;;7.35;100.00
63190;BME280;49286;44.460;26.114;2022-11-21T14:50:27;99605.53;;;8.39;100.00
63190;BME280;49286;44.460;26.114;2022-11-21T14:52:54;99585.53;;;8.32;100.00
63190;BME280;49286;44.460;26.114;2022-11-21T14:55:27;99477.81;;;7.64;100.00
63190;BME280;49286;44.460;26.114;2022-11-21T14:57:55;99609.03;;;8.35;100.00
63190;BME280;49286;44.460;26.114;2022-11-21T15:00:26;99469.16;;;7.53;100.00